createdAt,value
2023-04-15T00:10:36.423Z,10.90
2023-04-15T00:14:06.371Z,11.90
2023-04-15T00:17:52.434Z,10.60
2023-04-15T00:21:17.933Z,9.80
2023-04-15T00:31:54.108Z,10.10
2023-04-15T00:35:43.264Z,10.20
2023-04-15T00:39:13.049Z,8.50
2023-04-15T00:42:48.718Z,9.20
2023-04-15T01:15:21.465Z,10.30
2023-04-15T01:19:03.527Z,10.40
2023-04-15T01:22:40.087Z,10.50
2023-04-15T01:26:14.132Z,11.50
2023-04-15T01:29:46.195Z,11.50
2023-04-15T01:33:35.626Z,9.20
2023-04-15T01:37:05.678Z,10.30
2023-04-15T01:40:37.097Z,10.60
2023-04-15T01:48:36.594Z,14.00
2023-04-15T01:52:09.176Z,11.60
2023-04-15T01:55:50.113Z,10.60
2023-04-15T01:59:21.379Z,11.10
2023-04-15T02:02:50.682Z,9.00
2023-04-15T02:10:28.320Z,9.10
2023-04-15T02:14:00.231Z,12.60
2023-04-15T02:17:29.674Z,10.40
2023-04-15T02:21:04.129Z,9.60
2023-04-15T02:24:51.505Z,12.40
2023-04-15T02:28:26.074Z,11.80
2023-04-15T02:47:19.198Z,11.50
2023-04-15T02:50:57.435Z,11.90
2023-04-15T02:54:29.499Z,13.00
2023-04-15T02:58:12.604Z,12.40
2023-04-15T03:01:42.638Z,12.10
2023-04-15T03:05:14.338Z,11.40
2023-04-15T03:16:16.430Z,10.70
2023-04-15T03:20:00.203Z,11.60
2023-04-15T03:34:47.574Z,11.60
2023-04-15T03:50:38.392Z,13.50
2023-04-15T03:54:27.063Z,14.30
2023-04-15T03:58:12.489Z,12.90
2023-04-15T04:01:46.492Z,13.70
2023-04-15T04:05:22.542Z,13.60
2023-04-15T04:16:54.257Z,13.90
2023-04-15T04:20:35.255Z,13.00
2023-04-15T04:24:08.848Z,13.20
2023-04-15T04:27:55.127Z,13.60
2023-04-15T04:31:25.646Z,12.70
2023-04-15T04:34:59.750Z,11.00
2023-04-15T04:38:49.189Z,13.40
2023-04-15T04:42:18.895Z,13.00
2023-04-15T04:45:49.506Z,12.80
2023-04-15T04:49:25.046Z,14.30
2023-04-15T05:19:30.127Z,12.10
2023-04-15T05:23:16.411Z,13.10
2023-04-15T05:25:58.708Z,13.50
2023-04-15T05:29:43.166Z,12.20
2023-04-15T05:33:21.355Z,10.00
2023-04-15T05:36:35.238Z,11.30
2023-04-15T05:40:06.442Z,12.90
2023-04-15T05:43:59.717Z,13.40
2023-04-15T05:47:46.173Z,12.00
2023-04-15T05:51:19.755Z,10.20
2023-04-15T05:55:11.270Z,12.30
2023-04-15T06:14:27.749Z,12.50
2023-04-15T06:18:01.361Z,14.20
2023-04-15T06:22:07.189Z,11.50
2023-04-15T06:25:48.563Z,10.40
2023-04-15T06:29:25.840Z,12.80
2023-04-15T06:32:55.218Z,11.30
2023-04-15T06:58:04.641Z,11.80
2023-04-15T07:01:37.002Z,11.30
2023-04-15T07:08:42.622Z,10.40
2023-04-15T07:20:36.012Z,13.30
2023-04-15T07:32:04.065Z,11.80
2023-04-15T07:35:40.844Z,10.80
2023-04-15T07:39:20.085Z,11.70
2023-04-15T07:42:13.582Z,10.70
2023-04-15T07:45:18.616Z,11.20
2023-04-15T07:49:30.727Z,11.30
2023-04-15T07:53:16.306Z,15.50
2023-04-15T07:57:02.436Z,20.00
2023-04-15T08:00:45.414Z,27.00
2023-04-15T08:04:07.072Z,23.40
2023-04-15T08:13:21.784Z,21.90
2023-04-15T08:17:23.418Z,10.60
2023-04-15T08:20:56.949Z,11.30
2023-04-15T08:24:28.639Z,11.20
2023-04-15T08:28:08.705Z,10.60
2023-04-15T08:31:44.827Z,9.60
2023-04-15T08:35:37.304Z,9.70
2023-04-15T08:39:24.370Z,9.30
2023-04-15T08:43:15.945Z,9.40
2023-04-15T08:46:54.163Z,11.70
2023-04-15T08:50:23.906Z,9.70
2023-04-15T08:54:03.688Z,8.40
2023-04-15T09:09:00.146Z,9.40
2023-04-15T09:12:31.469Z,7.70
2023-04-15T09:16:13.321Z,9.20
2023-04-15T09:19:41.206Z,8.50
2023-04-15T09:22:40.997Z,9.20
2023-04-15T09:26:47.390Z,8.90
2023-04-15T09:30:42.507Z,8.90
2023-04-15T09:33:41.344Z,7.80
2023-04-15T09:40:30.408Z,12.40
2023-04-15T09:43:29.267Z,11.00
2023-04-15T09:47:15.979Z,12.30
2023-04-15T10:02:29.369Z,13.80
2023-04-15T10:05:50.330Z,11.10
2023-04-15T10:09:30.552Z,9.60
2023-04-15T10:13:36.339Z,12.20
2023-04-15T10:17:11.510Z,9.40
2023-04-15T10:20:56.082Z,10.20
2023-04-15T10:24:28.198Z,7.40
2023-04-15T10:27:57.563Z,9.70
2023-04-15T10:31:32.132Z,10.90
2023-04-15T10:35:08.169Z,7.80
2023-04-15T10:38:37.528Z,9.70
2023-04-15T10:42:21.024Z,9.30
2023-04-15T10:45:34.828Z,9.50
2023-04-15T10:49:02.732Z,12.40
2023-04-15T10:52:45.936Z,12.30
2023-04-15T10:56:30.318Z,11.50
2023-04-15T11:00:01.075Z,7.10
2023-04-15T11:03:49.014Z,6.50
2023-04-15T11:07:28.464Z,7.10
2023-04-15T11:11:02.279Z,7.00
2023-04-15T11:14:36.444Z,7.50
2023-04-15T11:18:26.525Z,11.80
2023-04-15T11:22:10.087Z,11.90
2023-04-15T11:30:12.918Z,18.90
2023-04-15T11:33:48.895Z,14.40
2023-04-15T11:41:12.677Z,12.90
2023-04-15T11:45:22.866Z,10.10
2023-04-15T11:48:49.756Z,8.50
2023-04-15T11:52:23.221Z,10.30
2023-04-15T11:55:53.174Z,10.70
2023-04-15T12:03:37.257Z,5.80
2023-04-15T12:07:12.835Z,11.00
2023-04-15T12:10:49.651Z,8.80
2023-04-15T12:14:24.852Z,7.80
2023-04-15T12:17:54.614Z,8.70
2023-04-15T12:21:43.413Z,11.20
2023-04-15T12:25:19.850Z,7.90
2023-04-15T12:28:23.920Z,9.40
2023-04-15T12:32:00.825Z,5.60
2023-04-15T12:35:41.332Z,6.30
2023-04-15T12:43:16.232Z,6.00
2023-04-15T12:46:47.409Z,7.70
2023-04-15T12:54:28.397Z,7.50
2023-04-15T12:58:00.144Z,9.00
2023-04-15T13:01:36.114Z,6.80
2023-04-15T13:05:10.167Z,8.30
2023-04-15T13:13:03.312Z,8.20
2023-04-15T13:16:34.132Z,6.80
2023-04-15T13:20:03.993Z,8.40
2023-04-15T13:23:45.373Z,7.20
2023-04-15T13:27:34.039Z,7.80
2023-04-15T13:31:17.146Z,7.00
2023-04-15T13:34:53.886Z,8.70
2023-04-15T13:38:37.809Z,8.00
2023-04-15T13:42:02.324Z,8.50
2023-04-15T13:45:37.727Z,8.50
2023-04-15T13:49:07.849Z,6.90
2023-04-15T13:52:46.135Z,6.70
2023-04-15T13:56:25.423Z,10.40
2023-04-15T13:59:57.347Z,6.70
2023-04-15T14:07:44.375Z,7.80
2023-04-15T14:11:20.041Z,8.60
2023-04-15T14:25:47.940Z,4.50
2023-04-15T14:40:47.615Z,8.60
2023-04-15T14:44:18.596Z,7.80
2023-04-15T14:47:52.929Z,7.00
2023-04-15T14:51:16.513Z,7.00
2023-04-15T14:59:08.886Z,7.00
2023-04-15T15:03:07.302Z,6.70
2023-04-15T15:06:51.980Z,7.40
2023-04-15T15:10:43.951Z,8.10
2023-04-15T15:37:04.774Z,6.40
2023-04-15T15:40:52.515Z,6.50
2023-04-15T15:43:49.296Z,7.70
2023-04-15T15:47:19.860Z,7.30
2023-04-15T15:50:56.606Z,6.70
2023-04-15T15:54:30.307Z,8.50
2023-04-15T15:58:18.945Z,9.00
2023-04-15T16:23:31.473Z,11.40
2023-04-15T16:27:10.775Z,8.10
2023-04-15T16:30:51.629Z,7.50
2023-04-15T16:37:59.593Z,10.70
2023-04-15T17:00:52.852Z,15.10
2023-04-15T17:04:35.954Z,12.80
2023-04-15T17:08:04.700Z,23.90
2023-04-15T17:11:34.563Z,22.20
2023-04-15T17:15:10.144Z,17.70
2023-04-15T17:44:25.143Z,28.80
2023-04-15T17:48:07.209Z,30.80
2023-04-15T17:51:57.805Z,28.90
2023-04-15T18:07:08.931Z,35.00
2023-04-15T18:18:11.289Z,28.50
2023-04-15T18:45:20.652Z,19.90
2023-04-15T18:48:59.906Z,19.40
2023-04-15T18:52:30.425Z,19.40
2023-04-15T19:11:04.393Z,13.20
2023-04-15T19:14:42.392Z,14.50
2023-04-15T19:18:17.185Z,25.20
2023-04-15T19:21:49.714Z,77.30
2023-04-15T19:35:56.027Z,57.70
2023-04-15T19:39:47.683Z,27.30
2023-04-15T19:43:21.225Z,45.30
2023-04-15T19:46:43.099Z,28.20
2023-04-15T19:50:42.865Z,27.60
2023-04-15T19:54:27.993Z,18.40
2023-04-15T20:17:40.341Z,18.90
2023-04-15T20:21:50.837Z,18.00
2023-04-15T20:25:40.181Z,19.30
2023-04-15T20:48:36.025Z,11.00
2023-04-15T20:52:09.901Z,10.00
2023-04-15T20:59:43.351Z,9.00
2023-04-15T21:20:51.407Z,5.70
2023-04-15T21:24:34.272Z,10.90
2023-04-15T21:46:49.198Z,10.10
2023-04-15T21:50:31.220Z,11.90
2023-04-15T21:54:04.194Z,11.20
2023-04-15T21:57:35.690Z,9.70
2023-04-15T22:20:39.651Z,12.70
2023-04-15T22:24:33.574Z,13.30
2023-04-15T22:28:08.343Z,15.90
2023-04-15T22:31:53.447Z,17.50
2023-04-15T22:35:56.025Z,23.80
2023-04-15T22:39:30.477Z,21.40
2023-04-15T22:47:23.263Z,24.80
2023-04-15T23:05:44.960Z,24.20
2023-04-15T23:09:16.254Z,24.90
2023-04-15T23:12:52.408Z,24.30
2023-04-15T23:41:18.306Z,34.90
2023-04-15T23:44:53.811Z,31.10
